createdAt,value
2022-08-18T00:01:17.516Z,100.00
2022-08-18T00:04:35.701Z,99.68
2022-08-18T00:07:46.959Z,99.90
2022-08-18T00:10:55.260Z,99.59
2022-08-18T00:14:03.508Z,99.62
2022-08-18T00:17:11.920Z,100.00
2022-08-18T00:20:24.066Z,100.00
2022-08-18T00:23:33.634Z,100.00
2022-08-18T00:26:41.855Z,100.00
2022-08-18T00:29:58.146Z,100.00
2022-08-18T00:33:06.362Z,100.00
2022-08-18T00:36:14.648Z,100.00
2022-08-18T00:39:24.198Z,100.00
2022-08-18T00:42:41.420Z,100.00
2022-08-18T00:45:49.797Z,100.00
2022-08-18T00:48:58.614Z,100.00
2022-08-18T00:52:08.078Z,100.00
2022-08-18T00:55:19.480Z,100.00
2022-08-18T00:58:35.845Z,100.00
2022-08-18T01:01:47.343Z,100.00
2022-08-18T01:05:02.601Z,100.00
2022-08-18T01:08:16.716Z,100.00
2022-08-18T01:11:39.418Z,100.00
2022-08-18T01:14:48.768Z,100.00
2022-08-18T01:18:15.668Z,100.00
2022-08-18T01:21:48.573Z,100.00
2022-08-18T01:25:20.316Z,100.00
2022-08-18T01:28:29.563Z,100.00
2022-08-18T01:31:42.019Z,100.00
2022-08-18T01:35:03.454Z,100.00
2022-08-18T01:38:13.299Z,100.00
2022-08-18T01:41:30.303Z,100.00
2022-08-18T01:44:41.563Z,100.00
2022-08-18T01:47:50.622Z,100.00
2022-08-18T01:50:58.855Z,100.00
2022-08-18T01:54:07.101Z,100.00
2022-08-18T01:57:22.883Z,100.00
2022-08-18T02:00:32.384Z,100.00
2022-08-18T02:03:45.729Z,100.00
2022-08-18T02:06:53.895Z,100.00
2022-08-18T02:10:20.510Z,100.00
2022-08-18T02:13:40.250Z,100.00
2022-08-18T02:16:48.846Z,100.00
2022-08-18T02:19:57.209Z,100.00
2022-08-18T02:23:05.451Z,100.00
2022-08-18T02:26:18.246Z,100.00
2022-08-18T02:29:28.233Z,100.00
2022-08-18T02:32:36.715Z,100.00
2022-08-18T02:35:46.257Z,100.00
2022-08-18T02:38:59.957Z,100.00
2022-08-18T02:42:09.474Z,100.00
2022-08-18T02:45:19.555Z,100.00
2022-08-18T02:48:31.125Z,100.00
2022-08-18T02:51:39.801Z,100.00
2022-08-18T02:54:48.379Z,100.00
2022-08-18T02:57:56.665Z,100.00
2022-08-18T03:01:06.265Z,100.00
2022-08-18T03:04:26.652Z,100.00
2022-08-18T03:07:37.442Z,100.00
2022-08-18T03:10:53.796Z,100.00
2022-08-18T03:14:01.999Z,100.00
2022-08-18T03:17:11.612Z,100.00
2022-08-18T03:20:19.834Z,100.00
2022-08-18T03:23:41.545Z,100.00
2022-08-18T03:26:50.979Z,100.00
2022-08-18T03:29:59.344Z,100.00
2022-08-18T03:33:08.986Z,100.00
2022-08-18T03:36:21.687Z,100.00
2022-08-18T03:39:30.454Z,100.00
2022-08-18T03:42:39.012Z,100.00
2022-08-18T03:45:47.360Z,100.00
2022-08-18T03:49:00.359Z,100.00
2022-08-18T03:52:11.701Z,100.00
2022-08-18T03:55:20.185Z,100.00
2022-08-18T03:58:29.190Z,100.00
2022-08-18T04:01:41.397Z,100.00
2022-08-18T04:04:51.456Z,100.00
2022-08-18T04:08:00.153Z,100.00
2022-08-18T04:11:08.271Z,100.00
2022-08-18T04:14:20.338Z,100.00
2022-08-18T04:17:29.037Z,100.00
2022-08-18T04:20:57.641Z,100.00
2022-08-18T04:24:08.931Z,100.00
2022-08-18T04:27:17.959Z,100.00
2022-08-18T04:30:26.215Z,100.00
2022-08-18T04:33:34.493Z,100.00
2022-08-18T04:36:45.360Z,100.00
2022-08-18T04:39:53.642Z,100.00
2022-08-18T04:43:02.830Z,100.00
2022-08-18T04:46:12.389Z,100.00
2022-08-18T04:49:24.065Z,100.00
2022-08-18T04:52:51.502Z,100.00
2022-08-18T04:56:00.065Z,100.00
2022-08-18T04:59:11.720Z,100.00
2022-08-18T05:02:22.928Z,100.00
2022-08-18T05:05:32.523Z,100.00
2022-08-18T05:08:42.306Z,100.00
2022-08-18T05:11:51.906Z,100.00
2022-08-18T05:15:00.296Z,100.00
2022-08-18T05:18:08.495Z,100.00
2022-08-18T05:21:25.249Z,100.00
2022-08-18T05:24:37.568Z,100.00
2022-08-18T05:27:46.146Z,100.00
2022-08-18T05:30:54.625Z,100.00
2022-08-18T05:34:05.525Z,100.00
2022-08-18T05:37:32.368Z,100.00
2022-08-18T05:40:47.721Z,100.00
2022-08-18T05:43:58.458Z,100.00
2022-08-18T05:47:12.768Z,100.00
2022-08-18T05:50:22.880Z,100.00
2022-08-18T05:53:45.786Z,100.00
2022-08-18T05:57:01.264Z,100.00
2022-08-18T06:00:11.835Z,100.00
2022-08-18T06:03:28.080Z,100.00
2022-08-18T06:06:39.093Z,100.00
2022-08-18T06:09:53.734Z,97.64
2022-08-18T06:13:09.333Z,98.73
2022-08-18T06:16:29.538Z,98.38
2022-08-18T06:19:53.303Z,97.50
2022-08-18T06:23:21.449Z,100.00
2022-08-18T06:26:41.707Z,99.63
2022-08-18T06:30:07.038Z,100.00
2022-08-18T06:33:45.920Z,99.91
2022-08-18T06:37:10.710Z,100.00
2022-08-18T06:40:18.951Z,99.69
2022-08-18T06:43:32.258Z,99.91
2022-08-18T06:47:04.220Z,100.00
2022-08-18T06:50:26.132Z,100.00
2022-08-18T06:53:58.683Z,98.03
2022-08-18T06:57:09.761Z,95.82
2022-08-18T07:00:26.782Z,96.00
2022-08-18T07:03:51.412Z,94.90
2022-08-18T07:06:59.964Z,95.17
2022-08-18T07:10:32.601Z,92.99
2022-08-18T07:13:44.412Z,94.80
2022-08-18T07:17:07.640Z,93.32
2022-08-18T07:20:24.453Z,91.07
2022-08-18T07:23:39.793Z,89.13
2022-08-18T07:27:08.379Z,87.68
2022-08-18T07:30:36.203Z,87.59
2022-08-18T07:33:56.649Z,87.44
2022-08-18T07:37:12.326Z,89.34
2022-08-18T07:40:31.953Z,87.63
2022-08-18T07:44:01.210Z,83.54
2022-08-18T07:47:19.637Z,80.43
2022-08-18T07:50:57.417Z,82.90
2022-08-18T07:54:37.723Z,84.18
2022-08-18T07:57:54.970Z,79.14
2022-08-18T08:01:14.403Z,76.81
2022-08-18T08:04:38.018Z,76.33
2022-08-18T08:07:55.523Z,77.01
2022-08-18T08:11:27.674Z,69.88
2022-08-18T08:14:43.599Z,65.05
2022-08-18T08:18:09.552Z,71.68
2022-08-18T08:21:23.635Z,72.84
2022-08-18T08:24:55.829Z,73.22
2022-08-18T08:28:17.015Z,76.33
2022-08-18T08:31:39.332Z,75.26
2022-08-18T08:34:57.166Z,77.50
2022-08-18T08:38:40.284Z,76.96
2022-08-18T08:41:51.815Z,75.59
2022-08-18T08:45:07.895Z,77.67
2022-08-18T08:48:27.085Z,74.33
2022-08-18T08:51:46.468Z,71.03
2022-08-18T08:55:00.404Z,63.72
2022-08-18T08:58:23.175Z,61.93
2022-08-18T09:01:43.007Z,60.99
2022-08-18T09:05:08.304Z,62.22
2022-08-18T09:09:00.423Z,62.82
2022-08-18T09:12:40.070Z,61.43
2022-08-18T09:16:14.365Z,68.93
2022-08-18T09:19:54.111Z,72.07
2022-08-18T09:23:09.783Z,73.51
2022-08-18T09:26:41.356Z,71.32
2022-08-18T09:29:54.106Z,69.69
2022-08-18T09:33:20.788Z,68.17
2022-08-18T09:36:48.964Z,69.03
2022-08-18T09:40:44.722Z,66.67
2022-08-18T09:48:03.604Z,69.01
2022-08-18T09:51:35.339Z,69.06
2022-08-18T09:54:54.599Z,68.71
2022-08-18T10:01:52.505Z,64.48
2022-08-18T10:05:29.138Z,64.94
2022-08-18T10:09:27.013Z,65.24
2022-08-18T10:12:57.493Z,68.17
2022-08-18T10:16:21.255Z,65.84
2022-08-18T10:19:45.475Z,64.57
2022-08-18T10:22:57.925Z,63.98
2022-08-18T10:26:11.439Z,62.65
2022-08-18T10:29:54.417Z,62.67
2022-08-18T10:33:17.538Z,61.37
2022-08-18T10:36:49.178Z,64.82
2022-08-18T10:40:03.071Z,65.89
2022-08-18T10:43:45.237Z,63.31
2022-08-18T10:46:53.274Z,64.16
2022-08-18T10:50:09.872Z,63.21
2022-08-18T10:53:38.855Z,62.25
2022-08-18T10:56:55.665Z,60.46
2022-08-18T11:00:13.788Z,59.32
2022-08-18T11:03:52.072Z,58.93
2022-08-18T11:07:14.600Z,60.40
2022-08-18T11:14:40.369Z,62.21
2022-08-18T11:18:10.111Z,59.79
2022-08-18T11:21:45.900Z,56.56
2022-08-18T11:25:03.623Z,59.78
2022-08-18T11:28:30.126Z,60.59
2022-08-18T11:31:40.339Z,62.59
2022-08-18T11:35:01.249Z,59.58
2022-08-18T11:38:20.712Z,57.19
2022-08-18T11:45:23.478Z,60.55
2022-08-18T11:56:30.876Z,60.25
2022-08-18T11:59:54.760Z,58.35
2022-08-18T12:03:24.272Z,58.69
2022-08-18T12:06:40.408Z,57.88
2022-08-18T12:10:26.260Z,57.86
2022-08-18T12:13:47.586Z,56.22
2022-08-18T12:17:01.397Z,57.95
2022-08-18T12:20:13.914Z,56.34
2022-08-18T12:23:22.847Z,56.99
2022-08-18T12:26:38.744Z,57.65
2022-08-18T12:29:53.821Z,57.75
2022-08-18T12:33:05.880Z,56.54
2022-08-18T12:36:21.138Z,56.77
2022-08-18T12:39:36.667Z,57.55
2022-08-18T12:42:46.373Z,59.68
2022-08-18T12:45:58.518Z,59.33
2022-08-18T12:49:18.293Z,58.93
2022-08-18T12:52:29.580Z,58.98
2022-08-18T12:55:45.475Z,58.65
2022-08-18T12:58:55.693Z,57.99
2022-08-18T13:02:05.177Z,58.21
2022-08-18T13:05:15.392Z,57.37
2022-08-18T13:08:30.650Z,58.01
2022-08-18T13:11:42.804Z,59.25
2022-08-18T13:14:51.720Z,58.64
2022-08-18T13:18:01.864Z,59.12
2022-08-18T13:21:13.509Z,60.74
2022-08-18T13:24:23.546Z,61.44
2022-08-18T13:27:33.855Z,61.39
2022-08-18T13:30:54.990Z,60.94
2022-08-18T13:34:05.433Z,63.02
2022-08-18T13:37:21.107Z,62.22
2022-08-18T13:40:32.718Z,62.46
2022-08-18T13:43:47.843Z,63.67
2022-08-18T13:46:57.130Z,63.70
2022-08-18T13:50:11.554Z,62.26
2022-08-18T13:53:22.265Z,60.98
2022-08-18T13:56:32.916Z,62.49
2022-08-18T13:59:46.722Z,61.32
2022-08-18T14:02:59.045Z,59.93
2022-08-18T14:06:08.664Z,61.27
2022-08-18T14:09:35.718Z,61.38
2022-08-18T14:12:48.002Z,60.27
2022-08-18T14:16:01.393Z,62.33
2022-08-18T14:19:26.222Z,63.02
2022-08-18T14:22:54.970Z,63.10
2022-08-18T14:26:21.670Z,63.37
2022-08-18T14:29:45.556Z,63.16
2022-08-18T14:32:58.226Z,62.85
2022-08-18T14:36:09.811Z,62.44
2022-08-18T14:39:19.001Z,62.35
2022-08-18T14:42:41.338Z,62.61
2022-08-18T14:46:00.804Z,61.54
2022-08-18T14:49:12.577Z,61.11
2022-08-18T14:52:23.936Z,61.76
2022-08-18T14:55:34.059Z,62.75
2022-08-18T14:58:43.021Z,61.72
2022-08-18T15:01:54.390Z,61.67
2022-08-18T15:05:19.543Z,63.09
2022-08-18T15:08:34.604Z,63.98
2022-08-18T15:11:45.806Z,63.10
2022-08-18T15:15:02.039Z,62.93
2022-08-18T15:18:15.986Z,65.24
2022-08-18T15:21:49.701Z,66.43
2022-08-18T15:25:16.066Z,66.86
2022-08-18T15:28:28.065Z,67.93
2022-08-18T15:31:56.603Z,68.83
2022-08-18T15:35:11.751Z,69.17
2022-08-18T15:38:23.735Z,69.02
2022-08-18T15:41:43.984Z,68.90
2022-08-18T15:44:54.202Z,68.17
2022-08-18T15:48:03.794Z,67.99
2022-08-18T15:51:14.551Z,67.83
2022-08-18T15:54:26.095Z,68.11
2022-08-18T15:57:38.815Z,68.50
2022-08-18T16:00:49.301Z,70.07
2022-08-18T16:04:01.489Z,72.00
2022-08-18T16:07:11.705Z,73.82
2022-08-18T16:10:23.966Z,74.54
2022-08-18T16:13:32.746Z,74.79
2022-08-18T16:16:41.866Z,75.22
2022-08-18T16:19:51.753Z,76.11
2022-08-18T16:23:03.481Z,75.09
2022-08-18T16:29:28.319Z,74.06
2022-08-18T16:32:39.513Z,74.14
2022-08-18T16:35:52.048Z,73.16
2022-08-18T16:39:03.639Z,73.43
2022-08-18T16:42:12.436Z,72.88
2022-08-18T16:45:21.469Z,73.07
2022-08-18T16:48:30.231Z,73.49
2022-08-18T16:51:39.172Z,73.89
2022-08-18T16:54:57.690Z,74.97
2022-08-18T16:58:24.032Z,75.70
2022-08-18T17:01:50.266Z,75.59
2022-08-18T17:05:02.463Z,76.23
2022-08-18T17:08:10.916Z,76.62
2022-08-18T17:11:21.402Z,76.83
2022-08-18T17:14:33.024Z,76.36
2022-08-18T17:17:41.543Z,76.52
2022-08-18T17:20:50.532Z,76.81
2022-08-18T17:24:01.175Z,78.35
2022-08-18T17:27:27.295Z,79.34
2022-08-18T17:30:47.882Z,79.58
2022-08-18T17:34:06.352Z,83.52
2022-08-18T17:37:18.627Z,88.39
2022-08-18T17:40:34.910Z,92.55
2022-08-18T17:47:03.845Z,95.79
2022-08-18T17:50:58.234Z,96.83
2022-08-18T17:54:22.291Z,96.63
2022-08-18T17:57:37.387Z,95.69
2022-08-18T18:00:47.329Z,97.17
2022-08-18T18:03:55.700Z,97.34
2022-08-18T18:07:06.436Z,96.16
2022-08-18T18:10:27.632Z,96.46
2022-08-18T18:13:36.692Z,90.90
2022-08-18T18:17:01.599Z,91.83
2022-08-18T18:20:24.276Z,91.17
2022-08-18T18:23:41.176Z,91.87
2022-08-18T18:26:50.918Z,93.78
2022-08-18T18:30:03.256Z,96.94
2022-08-18T18:33:18.371Z,99.92
2022-08-18T18:36:36.935Z,100.00
2022-08-18T18:39:58.209Z,100.00
2022-08-18T18:43:28.882Z,100.00
2022-08-18T18:46:47.049Z,100.00
2022-08-18T18:50:05.896Z,100.00
2022-08-18T18:53:28.655Z,100.00
2022-08-18T18:56:46.308Z,100.00
2022-08-18T19:00:11.676Z,100.00
2022-08-18T19:03:28.435Z,100.00
2022-08-18T19:06:52.721Z,100.00
2022-08-18T19:10:10.457Z,100.00
2022-08-18T19:13:26.834Z,100.00
2022-08-18T19:16:53.035Z,100.00
2022-08-18T19:20:09.748Z,100.00
2022-08-18T19:23:44.610Z,100.00
2022-08-18T19:27:00.992Z,100.00
2022-08-18T19:30:18.507Z,100.00
2022-08-18T19:33:39.447Z,100.00
2022-08-18T19:36:58.068Z,100.00
2022-08-18T19:40:20.166Z,100.00
2022-08-18T19:43:42.730Z,98.95
2022-08-18T19:46:59.003Z,99.92
2022-08-18T19:50:17.218Z,98.98
2022-08-18T19:53:55.756Z,100.00
2022-08-18T19:57:26.700Z,100.00
2022-08-18T20:00:56.631Z,100.00
2022-08-18T20:04:26.057Z,100.00
2022-08-18T20:08:26.564Z,100.00
2022-08-18T20:12:13.377Z,100.00
2022-08-18T20:15:28.793Z,100.00
2022-08-18T20:18:43.838Z,100.00
2022-08-18T20:22:04.478Z,100.00
2022-08-18T20:25:44.540Z,100.00
2022-08-18T20:28:54.717Z,100.00
2022-08-18T20:32:07.288Z,100.00
2022-08-18T20:35:24.618Z,100.00
2022-08-18T20:38:40.837Z,100.00
2022-08-18T20:41:50.560Z,100.00
2022-08-18T20:45:12.651Z,100.00
2022-08-18T20:48:39.699Z,100.00
2022-08-18T20:52:07.019Z,100.00
2022-08-18T20:55:36.769Z,100.00
2022-08-18T20:59:08.835Z,100.00
2022-08-18T21:02:41.845Z,100.00
2022-08-18T21:06:02.644Z,100.00
2022-08-18T21:09:23.357Z,100.00
2022-08-18T21:12:36.995Z,100.00
2022-08-18T21:15:52.715Z,100.00
2022-08-18T21:19:14.483Z,100.00
2022-08-18T21:22:25.492Z,100.00
2022-08-18T21:25:34.546Z,100.00
2022-08-18T21:28:49.301Z,100.00
2022-08-18T21:32:12.042Z,100.00
2022-08-18T21:35:29.926Z,100.00
2022-08-18T21:38:38.562Z,100.00
2022-08-18T21:41:51.332Z,100.00
2022-08-18T21:45:03.897Z,100.00
2022-08-18T21:48:16.148Z,100.00
2022-08-18T21:51:31.893Z,100.00
2022-08-18T21:54:41.620Z,100.00
2022-08-18T21:58:02.806Z,100.00
2022-08-18T22:01:22.800Z,100.00
2022-08-18T22:04:35.906Z,100.00
2022-08-18T22:07:49.731Z,100.00
2022-08-18T22:12:01.155Z,100.00
2022-08-18T22:15:11.073Z,100.00
2022-08-18T22:18:40.700Z,100.00
2022-08-18T22:21:58.856Z,100.00
2022-08-18T22:25:13.113Z,100.00
2022-08-18T22:28:27.409Z,100.00
2022-08-18T22:31:41.090Z,100.00
2022-08-18T22:34:51.381Z,100.00
2022-08-18T22:38:00.781Z,100.00
2022-08-18T22:41:11.946Z,100.00
2022-08-18T22:44:21.024Z,100.00
2022-08-18T22:47:34.146Z,100.00
2022-08-18T22:50:52.916Z,100.00
2022-08-18T22:54:01.947Z,100.00
2022-08-18T22:57:12.830Z,100.00
2022-08-18T23:00:22.993Z,100.00
2022-08-18T23:03:35.087Z,100.00
2022-08-18T23:06:54.613Z,100.00
2022-08-18T23:10:03.842Z,100.00
2022-08-18T23:13:21.223Z,100.00
2022-08-18T23:16:32.595Z,100.00
2022-08-18T23:19:43.741Z,100.00
2022-08-18T23:23:07.620Z,100.00
2022-08-18T23:26:17.461Z,100.00
2022-08-18T23:29:36.625Z,100.00
2022-08-18T23:32:45.638Z,100.00
2022-08-18T23:35:55.480Z,100.00
2022-08-18T23:39:04.645Z,100.00
2022-08-18T23:42:13.225Z,100.00
2022-08-18T23:45:23.644Z,100.00
2022-08-18T23:48:35.083Z,100.00
2022-08-18T23:51:48.989Z,100.00
2022-08-18T23:55:04.506Z,100.00
2022-08-18T23:58:12.926Z,100.00
